Time;durP1;ratioP1;P1;durP2;ratioP2;P2;SDS_P1;SDS_P2;PMS_P1;PMS_P2;Temp;Humidity;BMP_temperature;BMP_pressure;BME280_temperature;BME280_humidity;BME280_pressure;Samples;Min_cycle;Max_cycle;Signal;HPM_P1;HPM_P2
2022/09/09 00:02:01;;;;;;;27.80;11.20;;;;;;;15.82;52.86;99766.77;25052;1316;3026722;-62
2022/09/09 00:04:36;;;;;;;31.10;12.20;;;;;;;15.75;53.75;99769.54;25083;1316;3053877;-62
2022/09/09 00:07:43;;;;;;;26.60;11.10;;;;;;;15.71;53.93;99766.16;25063;1316;3069133;-62
2022/09/09 00:10:39;;;;;;;26.80;11.50;;;;;;;15.66;54.48;99756.65;25077;1316;3051541;-62
2022/09/09 00:13:18;;;;;;;28.10;11.40;;;;;;;15.61;55.14;99756.86;25083;1316;3051371;-62
2022/09/09 00:16:02;;;;;;;27.10;11.40;;;;;;;15.53;55.95;99765.98;25058;1316;3052419;-62
2022/09/09 00:18:47;;;;;;;21.80;10.80;;;;;;;15.49;55.82;99765.52;25063;1316;3059404;-62
2022/09/09 00:21:17;;;;;;;29.40;11.60;;;;;;;15.45;56.38;99760.93;25175;1312;3050055;-62
2022/09/09 00:23:50;;;;;;;24.90;11.60;;;;;;;15.39;56.96;99759.02;25085;1313;3026752;-62
2022/09/09 00:26:38;;;;;;;31.30;11.10;;;;;;;15.36;57.33;99763.75;25083;1313;3026396;-62
2022/09/09 00:29:08;;;;;;;21.50;10.50;;;;;;;15.32;57.41;99770.23;25037;1316;3071649;-62
2022/09/09 00:31:37;;;;;;;24.70;10.10;;;;;;;15.32;57.05;99768.29;25081;1313;3027161;-62
2022/09/09 00:34:21;;;;;;;27.70;10.00;;;;;;;15.30;57.36;99770.36;25118;1313;3026818;-62
2022/09/09 00:36:51;;;;;;;28.80;11.90;;;;;;;15.23;57.88;99772.81;25128;1316;3069677;-62
2022/09/09 00:39:44;;;;;;;22.20;9.50;;;;;;;15.19;57.55;99782.27;25097;1313;3026753;-62
2022/09/09 00:42:25;;;;;;;29.80;10.50;;;;;;;15.19;57.63;99777.73;25073;1313;3050887;-62
2022/09/09 00:45:20;;;;;;;22.50;9.90;;;;;;;15.15;57.96;99776.02;25150;1316;3053040;-62
2022/09/09 00:47:50;;;;;;;22.50;9.60;;;;;;;15.10;58.55;99774.11;25063;1316;3059663;-62
2022/09/09 00:50:41;;;;;;;23.60;9.70;;;;;;;15.06;58.31;99776.91;25048;1313;3026808;-62
2022/09/09 00:53:18;;;;;;;31.10;9.80;;;;;;;15.02;58.99;99775.57;25090;1313;3055876;-62
2022/09/09 00:56:18;;;;;;;20.70;8.70;;;;;;;15.00;58.87;99780.47;25064;1313;3054316;-62
2022/09/09 00:59:11;;;;;;;19.20;8.40;;;;;;;15.02;58.74;99782.13;25065;1313;3071154;-62
2022/09/09 01:01:40;;;;;;;19.50;8.20;;;;;;;15.02;58.63;99777.16;25086;1313;3051123;-62
2022/09/09 01:04:16;;;;;;;15.40;7.50;;;;;;;15.02;58.66;99780.30;25027;1317;3027145;-62
2022/09/09 01:06:46;;;;;;;16.90;8.30;;;;;;;15.07;58.00;99781.58;25063;1313;3071176;-62
2022/09/09 01:09:42;;;;;;;18.30;7.70;;;;;;;15.11;57.82;99781.80;25045;1316;3026685;-62
2022/09/09 01:12:23;;;;;;;15.30;7.20;;;;;;;15.13;57.76;99782.35;25067;1313;3052884;-62
2022/09/09 01:15:17;;;;;;;12.50;6.50;;;;;;;15.15;56.81;99781.17;25101;1313;3055411;-62
2022/09/09 01:17:53;;;;;;;9.50;5.40;;;;;;;15.13;56.44;99779.00;25055;1316;3059656;-62
2022/09/09 01:20:25;;;;;;;14.20;6.80;;;;;;;15.14;56.30;99776.67;25082;1313;3026392;-61
2022/09/09 01:23:16;;;;;;;22.50;7.10;;;;;;;15.13;56.07;99780.95;25029;1315;3052941;-62
2022/09/09 01:26:03;;;;;;;22.80;8.30;;;;;;;15.10;56.56;99779.95;25089;1313;3053776;-63
2022/09/09 01:28:35;;;;;;;17.80;7.90;;;;;;;15.06;56.90;99779.19;25092;1313;3069373;-63
2022/09/09 01:31:07;;;;;;;18.30;7.20;;;;;;;15.06;57.10;99781.99;25053;1315;3052090;-63
2022/09/09 01:33:44;;;;;;;24.60;8.30;;;;;;;15.08;57.34;99782.20;25071;1316;3052701;-62
2022/09/09 01:36:35;;;;;;;14.20;7.50;;;;;;;15.08;56.89;99779.52;25100;1316;3026748;-63
2022/09/09 01:39:04;;;;;;;16.40;7.30;;;;;;;15.05;57.61;99783.63;25126;1313;3048924;-63
2022/09/09 01:41:34;;;;;;;16.00;6.10;;;;;;;15.04;57.15;99781.60;25132;1313;3026464;-62
2022/09/09 01:44:07;;;;;;;15.60;6.60;;;;;;;15.07;56.60;99786.52;25097;1313;3026570;-63
2022/09/09 01:46:38;;;;;;;15.90;6.20;;;;;;;15.08;56.57;99788.58;25111;1313;3027006;-62
2022/09/09 01:49:08;;;;;;;14.30;7.00;;;;;;;15.08;56.72;99784.33;25109;1312;3025856;-63
2022/09/09 01:51:37;;;;;;;16.40;6.90;;;;;;;15.07;57.04;99777.15;25110;1313;3026338;-62
2022/09/09 01:54:09;;;;;;;16.80;7.20;;;;;;;15.06;57.32;99782.19;25094;1313;3058170;-63
2022/09/09 01:56:57;;;;;;;16.40;6.80;;;;;;;15.07;57.09;99783.34;25103;1313;3026318;-62
2022/09/09 01:59:46;;;;;;;14.10;6.40;;;;;;;15.06;57.24;99779.70;25085;1313;3054928;-62
2022/09/09 02:02:53;;;;;;;15.20;7.10;;;;;;;15.06;57.14;99775.08;25090;1313;3056211;-62
2022/09/09 02:05:29;;;;;;;14.40;6.80;;;;;;;15.01;57.45;99776.88;25117;1313;3052742;-63
2022/09/09 02:08:08;;;;;;;14.80;6.90;;;;;;;15.03;56.79;99777.65;25092;1316;3055681;-63
2022/09/09 02:10:58;;;;;;;15.60;6.10;;;;;;;15.01;57.53;99777.76;25102;1312;3054756;-62
2022/09/09 02:13:38;;;;;;;13.60;6.90;;;;;;;14.99;57.47;99782.19;25082;1316;3071346;-62
2022/09/09 02:16:17;;;;;;;14.10;6.70;;;;;;;14.97;57.29;99782.50;25121;1313;3026639;-61
2022/09/09 02:18:56;;;;;;;14.20;6.90;;;;;;;14.98;57.50;99785.11;25097;1313;3054551;-61
2022/09/09 02:21:34;;;;;;;13.80;6.40;;;;;;;14.95;57.53;99785.48;25120;1313;3053941;-61
2022/09/09 02:24:07;;;;;;;17.20;6.60;;;;;;;14.90;57.69;99787.73;25135;1313;3026334;-61
2022/09/09 02:26:41;;;;;;;18.50;6.90;;;;;;;14.87;57.65;99782.64;25105;1313;3050345;-61
2022/09/09 02:29:22;;;;;;;19.40;6.30;;;;;;;14.85;57.54;99785.00;25096;1311;3026214;-62
2022/09/09 02:31:53;;;;;;;12.20;5.90;;;;;;;14.84;57.16;99788.21;25106;1313;3051418;-61
2022/09/09 02:34:24;;;;;;;15.70;6.40;;;;;;;14.83;57.14;99789.34;25109;1313;3026566;-61
2022/09/09 02:36:53;;;;;;;17.10;6.50;;;;;;;14.79;57.62;99786.98;25066;1313;3026358;-62
2022/09/09 02:39:22;;;;;;;16.40;6.60;;;;;;;14.76;57.88;99788.41;25115;1313;3026470;-61
2022/09/09 02:41:52;;;;;;;16.80;7.30;;;;;;;14.74;57.97;99792.99;25093;1312;3070589;-61
2022/09/09 02:44:28;;;;;;;14.70;6.60;;;;;;;14.72;58.14;99797.72;25116;1313;3051799;-62
2022/09/09 02:47:19;;;;;;;18.30;6.70;;;;;;;14.70;58.13;99793.44;25137;1313;3025628;-62
2022/09/09 02:50:02;;;;;;;17.60;7.30;;;;;;;14.67;58.45;99793.67;25096;1313;3055471;-61
2022/09/09 02:53:10;;;;;;;19.70;7.30;;;;;;;14.62;58.92;99804.58;25106;1313;3058843;-62
2022/09/09 02:55:58;;;;;;;15.40;6.70;;;;;;;14.57;59.05;99806.34;25075;1315;3052413;-62
2022/09/09 02:58:27;;;;;;;14.30;6.90;;;;;;;14.50;59.65;99807.73;25112;1313;3054206;-62
2022/09/09 03:01:02;;;;;;;16.20;7.60;;;;;;;14.42;59.94;99805.65;25158;1313;3026281;-62
2022/09/09 03:03:32;;;;;;;18.30;7.50;;;;;;;14.38;59.60;99806.05;25093;1313;3026125;-62
2022/09/09 03:06:06;;;;;;;17.30;7.40;;;;;;;14.34;60.17;99810.61;25125;1313;3051533;-61
2022/09/09 03:08:35;;;;;;;21.40;7.20;;;;;;;14.30;60.15;99815.10;25108;1317;3026358;-62
2022/09/09 03:11:06;;;;;;;24.90;8.20;;;;;;;14.28;60.11;99819.99;25104;1313;3071082;-62
2022/09/09 03:13:37;;;;;;;18.20;8.50;;;;;;;14.25;60.15;99822.13;25091;1313;3028999;-62
2022/09/09 03:16:07;;;;;;;14.10;7.30;;;;;;;14.25;59.78;99827.48;25130;1313;3028562;-63
2022/09/09 03:18:42;;;;;;;;;;;;;;;14.26;59.95;99828.45;25138;1313;3055279;-63
2022/09/09 03:21:11;;;;;;;19.60;7.50;;;;;;;14.24;60.02;99828.55;25075;1313;3026823;-62
2022/09/09 03:23:42;;;;;;;16.30;7.20;;;;;;;14.26;59.68;99828.09;25112;1313;3026591;-63
2022/09/09 03:26:11;;;;;;;17.60;7.70;;;;;;;14.21;60.18;99832.98;25072;1313;3026407;-63
2022/09/09 03:28:45;;;;;;;14.30;7.30;;;;;;;14.19;60.04;99835.41;25054;1313;3053449;-63
2022/09/09 03:31:16;;;;;;;18.40;7.20;;;;;;;14.19;60.50;99833.32;25118;1313;3026605;-63
2022/09/09 03:33:45;;;;;;;15.30;7.20;;;;;;;14.17;61.02;99833.52;25057;1313;3026284;-64
2022/09/09 03:36:16;;;;;;;20.30;8.50;;;;;;;14.14;61.28;99837.89;25094;1318;3026373;-63
2022/09/09 03:38:45;;;;;;;19.40;7.20;;;;;;;14.14;61.19;99839.35;25064;1316;3027489;-63
2022/09/09 03:41:15;;;;;;;17.30;6.90;;;;;;;14.14;61.28;99841.08;25072;1313;3026642;-63
2022/09/09 03:43:45;;;;;;;16.30;7.40;;;;;;;14.13;61.52;99836.75;25100;1313;3026371;-63
2022/09/09 03:46:14;;;;;;;18.30;7.40;;;;;;;14.11;62.19;99842.14;25130;1313;3026481;-62
2022/09/09 03:48:44;;;;;;;17.20;7.10;;;;;;;14.09;62.42;99840.88;25089;1313;3058793;-63
2022/09/09 03:51:13;;;;;;;16.60;8.00;;;;;;;14.08;62.76;99843.76;25113;1313;3026400;-62
2022/09/09 03:53:43;;;;;;;16.60;7.40;;;;;;;14.08;62.76;99844.46;25098;1317;3026835;-63
2022/09/09 03:56:13;;;;;;;19.20;7.90;;;;;;;14.10;62.56;99849.08;25123;1313;3027010;-62
2022/09/09 03:58:42;;;;;;;19.10;8.20;;;;;;;14.11;62.86;99847.98;25085;1316;3026556;-62
2022/09/09 04:01:13;;;;;;;17.60;7.50;;;;;;;14.10;62.62;99853.33;25078;1313;3026872;-61
2022/09/09 04:03:44;;;;;;;23.20;7.50;;;;;;;14.06;63.07;99855.73;25155;1313;3026644;-62
2022/09/09 04:06:14;;;;;;;23.60;8.60;;;;;;;14.06;62.70;99850.74;25143;1313;3028735;-62
2022/09/09 04:09:10;;;;;;;15.30;7.10;;;;;;;14.05;63.00;99846.94;25120;1316;3059090;-62
2022/09/09 04:11:40;;;;;;;15.00;7.00;;;;;;;14.08;62.39;99851.48;25011;1316;3026363;-62
2022/09/09 04:14:09;;;;;;;15.90;7.40;;;;;;;14.11;62.62;99852.86;25088;1313;3026586;-62
2022/09/09 04:16:41;;;;;;;19.30;7.70;;;;;;;14.12;62.64;99855.67;25042;1316;3026144;-62
2022/09/09 04:19:13;;;;;;;18.40;7.20;;;;;;;14.16;62.44;99858.19;25052;1313;3026428;-62
2022/09/09 04:21:44;;;;;;;17.80;7.70;;;;;;;14.19;62.54;99858.48;25045;1316;3026611;-62
2022/09/09 04:24:16;;;;;;;24.00;7.50;;;;;;;14.25;62.21;99862.15;25084;1313;3027505;-62
2022/09/09 04:26:46;;;;;;;18.20;7.90;;;;;;;14.33;62.02;99863.23;25079;1313;3026589;-63
2022/09/09 04:29:15;;;;;;;14.80;7.00;;;;;;;14.41;61.78;99867.23;25067;1313;3026574;-62
2022/09/09 04:31:45;;;;;;;15.00;7.30;;;;;;;14.45;61.71;99869.19;25090;1313;3028307;-63
2022/09/09 04:34:15;;;;;;;20.00;7.30;;;;;;;14.49;61.82;99867.52;25093;1316;3026581;-62
2022/09/09 04:36:45;;;;;;;18.30;8.50;;;;;;;14.54;61.87;99867.73;25182;1316;3027330;-62
2022/09/09 04:39:15;;;;;;;15.80;7.10;;;;;;;14.58;61.42;99869.02;25074;1316;3049411;-62
2022/09/09 04:41:45;;;;;;;18.80;7.80;;;;;;;14.63;61.41;99870.42;25089;1316;3026903;-62
2022/09/09 04:44:14;;;;;;;16.30;7.00;;;;;;;14.69;61.04;99869.89;25148;1313;3027481;-63
2022/09/09 04:46:45;;;;;;;18.80;8.20;;;;;;;14.75;60.92;99870.32;25067;1313;3026383;-62
2022/09/09 04:49:14;;;;;;;17.10;7.60;;;;;;;14.78;61.05;99868.65;25105;1316;3026824;-62
2022/09/09 04:51:44;;;;;;;17.80;7.60;;;;;;;14.82;61.01;99878.14;25058;1318;3026885;-62
2022/09/09 04:54:13;;;;;;;15.50;7.50;;;;;;;14.84;61.35;99877.95;25053;1319;3026043;-63
2022/09/09 04:56:44;;;;;;;20.50;8.00;;;;;;;14.86;61.27;99876.21;25079;1316;3026467;-62
2022/09/09 04:59:15;;;;;;;23.30;8.50;;;;;;;14.91;61.23;99875.66;25084;1313;3027341;-62
2022/09/09 05:01:48;;;;;;;17.40;9.10;;;;;;;14.96;61.13;99871.81;25043;1313;3026846;-62
2022/09/09 05:04:19;;;;;;;20.30;9.10;;;;;;;15.01;61.25;99873.20;25102;1316;3027156;-62
2022/09/09 05:06:49;;;;;;;17.30;8.70;;;;;;;15.09;60.81;99871.38;25037;1312;3027676;-62
2022/09/09 05:09:18;;;;;;;20.90;8.90;;;;;;;15.15;60.87;99867.42;25087;1316;3026508;-65
2022/09/09 05:11:48;;;;;;;18.60;8.50;;;;;;;15.18;60.78;99870.22;25135;1313;3026535;-62
2022/09/09 05:14:31;;;;;;;22.90;9.00;;;;;;;15.24;60.94;99872.77;25000;1316;3055483;-63
2022/09/09 05:17:02;;;;;;;18.30;8.90;;;;;;;15.23;61.21;99874.22;25231;1313;3026283;-61
2022/09/09 05:19:32;;;;;;;19.60;8.90;;;;;;;15.26;60.78;99876.89;25116;1318;3026743;-63
2022/09/09 05:22:02;;;;;;;22.30;8.50;;;;;;;15.32;60.77;99873.59;25102;1313;3029435;-62
2022/09/09 05:24:38;;;;;;;20.40;9.20;;;;;;;15.36;60.40;99870.84;25141;1313;3050648;-62
2022/09/09 05:27:11;;;;;;;21.70;9.10;;;;;;;15.36;60.49;99874.55;25122;1313;3026856;-63
2022/09/09 05:29:44;;;;;;;15.70;8.20;;;;;;;15.40;60.49;99878.98;25065;1313;3026619;-63
2022/09/09 05:32:15;;;;;;;23.10;9.20;;;;;;;15.47;60.25;99880.13;25088;1313;3027004;-62
2022/09/09 05:34:44;;;;;;;16.50;8.00;;;;;;;15.53;60.29;99876.48;25145;1313;3026760;-62
2022/09/09 05:37:16;;;;;;;19.30;8.40;;;;;;;15.59;59.99;99876.87;25105;1312;3026626;-62
2022/09/09 05:39:45;;;;;;;19.50;8.50;;;;;;;15.63;60.08;99882.77;25073;1313;3030022;-63
2022/09/09 05:42:15;;;;;;;21.70;9.80;;;;;;;15.61;60.41;99883.60;25051;1316;3026439;-63
2022/09/09 05:44:46;;;;;;;20.00;8.70;;;;;;;15.64;60.28;99886.09;25139;1316;3026698;-63
2022/09/09 05:47:15;;;;;;;18.90;8.50;;;;;;;15.75;59.84;99891.03;25039;1316;3026408;-62
2022/09/09 05:49:45;;;;;;;15.70;8.00;;;;;;;15.83;59.33;99889.98;25075;1316;3055454;-63
2022/09/09 05:52:15;;;;;;;19.70;8.60;;;;;;;15.91;58.84;99893.23;25086;1313;3028830;-62
2022/09/09 05:54:44;;;;;;;17.30;7.90;;;;;;;15.98;58.61;99892.38;25064;1316;3026426;-63
2022/09/09 05:57:13;;;;;;;17.00;8.40;;;;;;;16.03;57.88;99887.95;25055;1316;3052303;-62
2022/09/09 05:59:42;;;;;;;20.10;7.90;;;;;;;16.06;57.65;99884.99;25130;1313;3026474;-62
2022/09/09 06:02:13;;;;;;;13.60;7.20;;;;;;;16.07;57.11;99887.94;25076;1316;3026700;-62
2022/09/09 06:04:42;;;;;;;18.70;7.30;;;;;;;16.14;56.59;99893.60;25137;1316;3052801;-62
2022/09/09 06:07:11;;;;;;;17.90;7.40;;;;;;;16.18;56.16;99893.99;25101;1313;3026825;-62
2022/09/09 06:09:41;;;;;;;17.40;7.00;;;;;;;16.22;55.79;99891.20;25080;1313;3050068;-62
2022/09/09 06:12:10;;;;;;;17.60;7.40;;;;;;;16.33;55.52;99896.75;25198;1316;3027674;-62
2022/09/09 06:14:41;;;;;;;13.50;6.90;;;;;;;16.42;55.39;99896.39;25067;1318;3058538;-62
2022/09/09 06:17:10;;;;;;;13.60;6.60;;;;;;;16.53;55.19;99902.06;25073;1316;3028258;-62
2022/09/09 06:19:39;;;;;;;17.30;7.60;;;;;;;16.59;55.20;99905.88;25119;1315;3026571;-63
2022/09/09 06:22:11;;;;;;;21.00;7.90;;;;;;;16.69;55.00;99910.06;25076;1313;3059204;-63
2022/09/09 06:24:41;;;;;;;18.60;8.20;;;;;;;16.74;54.51;99917.92;25067;1313;3026809;-62
2022/09/09 06:27:13;;;;;;;14.20;7.60;;;;;;;16.75;54.30;99919.13;25092;1313;3026952;-62
2022/09/09 06:29:42;;;;;;;19.60;7.20;;;;;;;16.72;54.07;99927.66;25100;1313;3027133;-62
2022/09/09 06:32:11;;;;;;;21.30;7.80;;;;;;;16.75;54.07;99925.30;25092;1316;3026505;-62
2022/09/09 06:34:40;;;;;;;14.70;6.90;;;;;;;16.79;53.81;99924.98;25105;1316;3054613;-62
2022/09/09 06:37:10;;;;;;;21.00;7.00;;;;;;;16.82;53.68;99917.45;25085;1316;3027373;-62
2022/09/09 06:39:43;;;;;;;16.90;7.10;;;;;;;16.97;53.34;99920.63;25047;1315;3051803;-63
2022/09/09 06:42:13;;;;;;;20.80;7.60;;;;;;;17.02;52.57;99927.44;25105;1313;3026824;-62
2022/09/09 06:45:04;;;;;;;16.50;7.10;;;;;;;17.00;52.28;99933.58;25172;1316;3052705;-63
2022/09/09 06:47:42;;;;;;;15.70;6.90;;;;;;;17.13;52.34;99935.40;25040;1316;3067063;-63
2022/09/09 06:50:11;;;;;;;16.70;6.60;;;;;;;17.21;52.03;99931.75;25953;1316;3026048;-63
2022/09/09 06:52:40;;;;;;;17.10;6.60;;;;;;;17.30;51.90;99937.92;25932;1316;3027447;-64
2022/09/09 06:55:10;;;;;;;25.30;6.90;;;;;;;17.42;51.78;99940.34;25712;1315;3026612;-63
2022/09/09 06:57:40;;;;;;;19.10;6.60;;;;;;;17.51;50.87;99946.82;25104;1316;3026494;-63
2022/09/09 07:00:14;;;;;;;15.90;7.00;;;;;;;17.51;50.79;99950.20;25073;1316;3049983;-63
2022/09/09 07:02:45;;;;;;;17.00;7.70;;;;;;;17.53;50.99;99949.55;25102;1316;3026382;-62
2022/09/09 07:05:15;;;;;;;15.20;6.40;;;;;;;17.64;50.28;99944.73;25182;1316;3026895;-63
2022/09/09 07:07:44;;;;;;;18.20;5.80;;;;;;;17.79;50.44;99945.82;25092;1316;3026914;-63
2022/09/09 07:10:14;;;;;;;13.90;5.90;;;;;;;17.89;49.84;99949.53;25124;1316;3026567;-62
2022/09/09 07:12:44;;;;;;;19.60;6.50;;;;;;;17.98;49.68;99951.13;25081;1316;3026118;-63
2022/09/09 07:15:14;;;;;;;14.00;5.40;;;;;;;18.04;49.34;99952.09;25126;1316;3027626;-63
2022/09/09 07:17:46;;;;;;;15.00;5.60;;;;;;;18.15;49.00;99956.61;25136;1316;3027645;-63
2022/09/09 07:20:15;;;;;;;15.70;6.10;;;;;;;18.25;48.22;99955.24;25052;1315;3026232;-62
2022/09/09 07:22:44;;;;;;;12.70;5.50;;;;;;;18.35;48.50;99953.19;25119;1315;3026506;-62
2022/09/09 07:25:16;;;;;;;13.10;5.50;;;;;;;18.50;48.12;99956.52;25125;1316;3058438;-62
2022/09/09 07:27:47;;;;;;;17.70;5.90;;;;;;;18.63;48.02;99954.69;25095;1316;3026648;-63
2022/09/09 07:30:16;;;;;;;19.00;5.00;;;;;;;18.71;47.32;99954.49;25113;1316;3026545;-63
2022/09/09 07:32:44;;;;;;;12.80;5.70;;;;;;;18.78;47.36;99953.54;24311;1319;4676759;-62
2022/09/09 07:35:13;;;;;;;16.30;5.90;;;;;;;18.79;47.38;99950.13;25078;1316;3027943;-63
2022/09/09 07:37:43;;;;;;;15.60;6.20;;;;;;;18.83;47.43;99953.27;25113;1316;3026731;-62
2022/09/09 07:40:12;;;;;;;20.90;6.20;;;;;;;18.96;46.82;99951.30;25107;1316;3027039;-62
2022/09/09 07:42:43;;;;;;;14.30;5.80;;;;;;;19.05;46.80;99945.92;25058;1316;3026506;-62
2022/09/09 07:45:12;;;;;;;9.50;5.40;;;;;;;19.09;46.55;99947.70;25123;1315;3026847;-62
2022/09/09 07:47:43;;;;;;;17.10;5.10;;;;;;;19.14;46.51;99948.84;25045;1315;3059150;-62
2022/09/09 07:50:13;;;;;;;7.80;4.60;;;;;;;19.27;46.82;99948.77;25053;1316;3026653;-62
2022/09/09 07:52:42;;;;;;;14.30;5.40;;;;;;;19.30;46.39;99945.63;25117;1313;3026193;-63
2022/09/09 07:55:11;;;;;;;10.40;5.10;;;;;;;19.32;46.37;99944.27;25048;1313;3058687;-63
2022/09/09 07:57:44;;;;;;;14.00;6.00;;;;;;;19.44;46.19;99947.42;25118;1313;3027377;-62
2022/09/09 08:00:14;;;;;;;10.50;5.00;;;;;;;19.53;45.65;99947.02;25126;1313;3026483;-62
2022/09/09 08:02:46;;;;;;;10.80;5.20;;;;;;;19.58;45.52;99942.79;25065;1315;3029249;-62
2022/09/09 08:05:16;;;;;;;17.10;5.20;;;;;;;19.64;45.48;99935.09;25031;1312;3026838;-63
2022/09/09 08:07:48;;;;;;;9.00;5.10;;;;;;;19.68;45.04;99935.30;25072;1315;3056426;-63
2022/09/09 08:10:18;;;;;;;12.20;5.20;;;;;;;19.80;45.03;99940.83;25094;1312;3026457;-63
2022/09/09 08:13:14;;;;;;;15.40;4.90;;;;;;;19.82;45.07;99942.61;25085;1312;3071476;-64
2022/09/09 08:15:45;;;;;;;13.50;5.00;;;;;;;19.88;44.34;99942.56;25092;1316;3026929;-63
2022/09/09 08:18:15;;;;;;;11.60;5.30;;;;;;;19.98;44.37;99946.08;25076;1315;3026492;-63
2022/09/09 08:20:46;;;;;;;10.90;4.70;;;;;;;19.98;43.80;99942.87;25118;1313;3026985;-63
2022/09/09 08:23:15;;;;;;;19.80;5.20;;;;;;;19.95;43.75;99939.98;25025;1315;3026226;-63
2022/09/09 08:25:45;;;;;;;9.20;4.60;;;;;;;20.02;43.70;99934.87;25126;1313;3054872;-63
2022/09/09 08:28:14;;;;;;;8.00;4.30;;;;;;;20.04;43.32;99933.42;25117;1316;3026146;-63
2022/09/09 08:30:43;;;;;;;13.60;4.20;;;;;;;20.20;43.48;99933.05;25164;1312;3027424;-62
2022/09/09 08:33:13;;;;;;;14.00;4.70;;;;;;;20.27;42.94;99929.73;25147;1313;3026892;-62
2022/09/09 08:35:50;;;;;;;10.80;4.70;;;;;;;20.29;43.00;99930.39;25121;1313;3053948;-62
2022/09/09 08:38:20;;;;;;;14.50;5.00;;;;;;;20.31;42.75;99926.69;25088;1312;3057069;-63
2022/09/09 08:40:50;;;;;;;8.60;4.40;;;;;;;20.39;43.16;99932.00;25449;1312;3026251;-63
2022/09/09 08:43:20;;;;;;;8.50;4.50;;;;;;;20.50;43.19;99933.05;25141;1312;3026599;-63
2022/09/09 08:46:17;;;;;;;11.40;4.50;;;;;;;20.55;43.25;99929.02;25182;1313;3027613;-62
2022/09/09 08:49:10;;;;;;;13.40;4.90;;;;;;;20.66;43.22;99927.50;25099;1313;3069281;-62
2022/09/09 08:51:41;;;;;;;9.30;3.80;;;;;;;20.81;42.86;99927.84;25215;1312;3048947;-63
2022/09/09 08:54:10;;;;;;;7.60;4.30;;;;;;;21.00;42.37;99926.59;25084;1316;3026432;-63
2022/09/09 08:56:41;;;;;;;12.10;4.60;;;;;;;21.05;41.86;99922.14;25120;1313;3028466;-63
2022/09/09 08:59:11;;;;;;;12.70;4.70;;;;;;;21.05;42.34;99921.27;25104;1313;3026509;-62
2022/09/09 09:01:55;;;;;;;15.40;4.70;;;;;;;21.06;42.46;99915.48;25091;1312;3049127;-63
2022/09/09 09:04:45;;;;;;;11.80;4.10;;;;;;;21.14;42.01;99922.11;25148;1313;3052493;-63
2022/09/09 09:07:34;;;;;;;12.10;4.60;;;;;;;21.04;41.52;99917.93;25140;1313;3052454;-63
2022/09/09 09:10:16;;;;;;;6.10;3.80;;;;;;;21.20;41.01;99918.90;25186;1313;3070386;-62
2022/09/09 09:12:47;;;;;;;12.10;4.50;;;;;;;21.37;40.35;99915.83;25112;1313;3049533;-62
2022/09/09 09:15:23;;;;;;;10.40;3.80;;;;;;;21.44;40.54;99914.99;25148;1313;3053422;-63
2022/09/09 09:17:53;;;;;;;13.80;4.60;;;;;;;21.50;40.76;99916.98;25144;1313;3027255;-63
2022/09/09 09:20:49;;;;;;;8.20;4.20;;;;;;;21.60;40.54;99915.13;25095;1313;3026572;-63
2022/09/09 09:23:48;;;;;;;6.70;3.90;;;;;;;21.72;40.19;99916.08;25122;1313;3048888;-63
2022/09/09 09:26:18;;;;;;;5.90;4.00;;;;;;;21.73;39.68;99914.94;25143;1312;3056844;-63
2022/09/09 09:28:48;;;;;;;7.30;4.20;;;;;;;21.70;40.01;99921.88;25186;1313;3026335;-63
2022/09/09 09:31:18;;;;;;;9.60;4.80;;;;;;;21.78;39.70;99921.94;25143;1313;3026775;-63
2022/09/09 09:33:50;;;;;;;13.20;4.80;;;;;;;21.82;39.80;99923.52;25165;1313;3027726;-63
2022/09/09 09:36:44;;;;;;;10.00;4.60;;;;;;;21.89;40.06;99926.73;25145;1312;3026989;-63
2022/09/09 09:39:25;;;;;;;11.60;3.80;;;;;;;21.91;39.73;99927.98;25326;1312;3053737;-63
2022/09/09 09:41:54;;;;;;;9.80;4.10;;;;;;;21.88;39.91;99930.23;25271;1315;3059243;-63
2022/09/09 09:44:28;;;;;;;11.50;4.60;;;;;;;21.96;39.80;99927.20;25312;1312;3026729;-63
2022/09/09 09:47:26;;;;;;;10.90;5.00;;;;;;;21.95;39.55;99928.21;25248;1313;3053755;-65
2022/09/09 09:50:17;;;;;;;9.70;4.20;;;;;;;22.02;39.46;99935.80;25170;1315;3053143;-63
2022/09/09 09:52:57;;;;;;;12.60;4.20;;;;;;;22.00;39.22;99931.31;25207;1313;3069617;-63
2022/09/09 09:55:27;;;;;;;9.80;4.00;;;;;;;22.11;39.33;99930.20;25211;1313;3050012;-63
2022/09/09 09:58:06;;;;;;;10.80;4.20;;;;;;;22.37;38.78;99932.88;25176;1313;3026594;-64
2022/09/09 10:00:37;;;;;;;8.80;4.10;;;;;;;22.46;38.17;99929.14;25209;1313;3053004;-64
2022/09/09 10:03:28;;;;;;;7.70;4.50;;;;;;;22.57;37.85;99930.31;25092;1313;3029246;-63
2022/09/09 10:05:58;;;;;;;8.60;4.60;;;;;;;22.76;36.90;99926.98;25271;1313;3050075;-63
2022/09/09 10:08:27;;;;;;;12.10;4.70;;;;;;;22.79;36.76;99924.44;25274;1312;3026684;-63
2022/09/09 10:11:19;;;;;;;10.70;5.00;;;;;;;22.74;36.87;99928.95;25241;1313;3056958;-64
2022/09/09 10:14:14;;;;;;;11.90;4.50;;;;;;;22.64;36.80;99931.22;25197;1313;3050820;-64
2022/09/09 10:17:13;;;;;;;7.70;4.10;;;;;;;22.75;36.13;99934.70;25329;1312;3053355;-63
2022/09/09 10:19:50;;;;;;;10.90;4.50;;;;;;;22.82;34.52;99938.16;25350;1313;3051610;-64
2022/09/09 10:22:27;;;;;;;14.50;4.50;;;;;;;22.89;34.49;99939.19;25143;1313;3071908;-63
2022/09/09 10:25:05;;;;;;;18.90;4.60;;;;;;;22.89;33.94;99937.24;25153;1312;3049657;-63
2022/09/09 10:27:49;;;;;;;11.50;4.50;;;;;;;22.90;33.12;99936.58;25149;1313;3051851;-63
2022/09/09 10:30:30;;;;;;;9.70;4.10;;;;;;;22.90;32.91;99935.67;25156;1313;3052698;-64
2022/09/09 10:33:09;;;;;;;14.70;4.70;;;;;;;22.93;32.56;99933.17;25117;1313;3056826;-63
2022/09/09 10:36:02;;;;;;;10.40;4.70;;;;;;;22.90;32.42;99929.92;25141;1313;3049802;-63
2022/09/09 10:38:43;;;;;;;14.60;4.60;;;;;;;22.96;32.80;99937.06;25097;1313;3053452;-63
2022/09/09 10:41:15;;;;;;;7.80;4.40;;;;;;;22.94;32.48;99933.42;25165;1313;3053978;-63
2022/09/09 10:44:06;;;;;;;7.90;4.40;;;;;;;22.97;32.64;99929.54;25075;1313;3026827;-63
2022/09/09 10:46:54;;;;;;;7.30;4.20;;;;;;;23.14;31.65;99922.80;25204;1313;3052070;-63
2022/09/09 10:49:35;;;;;;;9.60;4.90;;;;;;;23.22;30.36;99916.98;25182;1313;3053772;-64
2022/09/09 10:52:08;;;;;;;8.60;4.40;;;;;;;23.12;30.52;99915.16;25215;1312;3055681;-63
2022/09/09 10:54:59;;;;;;;10.30;4.50;;;;;;;23.24;30.63;99915.15;25130;1313;3026587;-63
2022/09/09 10:57:36;;;;;;;14.40;4.60;;;;;;;23.12;31.19;99920.15;25194;1313;3049405;-63
2022/09/09 11:00:07;;;;;;;13.80;4.60;;;;;;;22.96;32.20;99917.71;25138;1313;3052972;-63
2022/09/09 11:02:35;;;;;;;13.40;5.30;;;;;;;22.87;32.36;99918.82;25091;1313;3026461;-62
2022/09/09 11:05:20;;;;;;;12.20;4.30;;;;;;;22.90;32.45;99921.94;25156;1313;3026773;-63
2022/09/09 11:08:05;;;;;;;8.80;4.30;;;;;;;22.96;31.31;99914.52;25154;1312;3053785;-63
2022/09/09 11:10:39;;;;;;;9.30;4.10;;;;;;;22.93;31.20;99918.58;25091;1313;3052995;-63
2022/09/09 11:13:22;;;;;;;7.10;3.90;;;;;;;22.83;30.15;99917.86;25129;1313;3071258;-62
2022/09/09 11:15:53;;;;;;;7.90;4.40;;;;;;;22.76;29.90;99917.31;25159;1313;3050204;-62
2022/09/09 11:18:22;;;;;;;11.00;4.20;;;;;;;22.69;29.88;99920.19;25138;1313;3026426;-63
2022/09/09 11:20:55;;;;;;;10.60;4.40;;;;;;;22.79;30.43;99921.48;25105;1313;3028290;-63
2022/09/09 11:23:27;;;;;;;13.10;4.70;;;;;;;23.03;30.47;99919.52;25105;1313;3048653;-63
2022/09/09 11:25:58;;;;;;;10.50;4.70;;;;;;;23.22;29.98;99915.90;25158;1312;3029036;-63
2022/09/09 11:29:06;;;;;;;10.00;5.00;;;;;;;23.37;28.71;99917.64;25152;1313;3029711;-63
2022/09/09 11:31:46;;;;;;;16.40;4.20;;;;;;;23.43;29.14;99915.41;25050;1313;3059362;-64
2022/09/09 11:34:34;;;;;;;10.20;4.90;;;;;;;23.60;29.27;99914.61;25103;1313;3052241;-63
2022/09/09 11:37:14;;;;;;;10.50;4.70;;;;;;;23.80;29.71;99910.92;25131;1313;3055911;-61
2022/09/09 11:39:58;;;;;;;10.60;4.70;;;;;;;23.98;29.53;99911.61;25065;1313;3053460;-63
2022/09/09 11:42:27;;;;;;;9.40;4.60;;;;;;;24.06;29.31;99905.02;25057;1312;3071759;-61
2022/09/09 11:44:57;;;;;;;11.30;4.60;;;;;;;24.06;29.83;99902.73;25060;1313;3026220;-61
2022/09/09 11:47:31;;;;;;;11.60;5.70;;;;;;;23.76;30.66;99903.11;25099;1313;3026175;-61